createdAt,value
2023-05-13T00:01:59.904Z,19.70
2023-05-13T00:04:26.751Z,19.70
2023-05-13T00:06:53.506Z,19.70
2023-05-13T00:09:20.092Z,19.20
2023-05-13T00:11:46.764Z,19.90
2023-05-13T00:14:13.597Z,19.90
2023-05-13T00:16:40.574Z,19.50
2023-05-13T00:19:07.369Z,19.40
2023-05-13T00:21:34.127Z,19.50
2023-05-13T00:24:01.089Z,19.60
2023-05-13T00:26:27.759Z,20.10
2023-05-13T00:28:54.345Z,19.60
2023-05-13T00:31:21.086Z,20.10
2023-05-13T00:33:47.735Z,20.40
2023-05-13T00:36:14.458Z,20.00
2023-05-13T00:38:41.082Z,19.80
2023-05-13T00:41:07.719Z,20.20
2023-05-13T00:43:34.354Z,20.50
2023-05-13T00:46:01.288Z,19.70
2023-05-13T00:48:27.945Z,19.90
2023-05-13T00:50:54.859Z,19.60
2023-05-13T00:53:21.669Z,19.70
2023-05-13T00:55:48.297Z,19.70
2023-05-13T00:58:15.005Z,20.00
2023-05-13T01:00:46.071Z,19.90
2023-05-13T01:03:13.958Z,20.00
2023-05-13T01:05:40.800Z,19.40
2023-05-13T01:08:07.509Z,19.70
2023-05-13T01:10:44.349Z,19.60
2023-05-13T01:13:12.273Z,19.00
2023-05-13T01:16:01.347Z,20.30
2023-05-13T01:18:31.355Z,19.50
2023-05-13T01:20:58.436Z,19.80
2023-05-13T01:23:25.278Z,19.50
2023-05-13T01:25:51.905Z,19.40
2023-05-13T01:28:19.077Z,19.50
2023-05-13T01:30:46.825Z,19.40
2023-05-13T01:33:14.359Z,19.90
2023-05-13T01:35:41.191Z,19.90
2023-05-13T01:38:08.246Z,19.40
2023-05-13T01:40:35.606Z,19.40
2023-05-13T01:43:02.489Z,19.80
2023-05-13T01:45:30.000Z,19.80
2023-05-13T01:47:56.751Z,19.40
2023-05-13T01:50:23.755Z,19.70
2023-05-13T01:52:50.617Z,19.40
2023-05-13T01:55:17.280Z,19.40
2023-05-13T01:57:43.844Z,19.40
2023-05-13T02:00:10.858Z,19.90
2023-05-13T02:02:37.528Z,19.40
2023-05-13T02:05:04.298Z,19.60
2023-05-13T02:07:31.047Z,19.40
2023-05-13T02:09:59.911Z,19.40
2023-05-13T02:12:26.953Z,19.50
2023-05-13T02:14:54.357Z,19.60
2023-05-13T02:17:21.888Z,19.40
2023-05-13T02:19:48.558Z,19.50
2023-05-13T02:22:15.379Z,19.90
2023-05-13T02:24:42.101Z,19.70
2023-05-13T02:27:08.744Z,19.40
2023-05-13T02:29:35.342Z,19.80
2023-05-13T02:32:02.039Z,20.00
2023-05-13T02:34:28.672Z,19.80
2023-05-13T02:36:55.324Z,19.70
2023-05-13T02:39:21.949Z,19.50
2023-05-13T02:41:48.699Z,19.40
2023-05-13T02:44:15.577Z,19.70
2023-05-13T02:46:44.090Z,19.30
2023-05-13T02:49:10.992Z,20.00
2023-05-13T02:51:37.578Z,19.40
2023-05-13T02:54:04.221Z,19.30
2023-05-13T02:56:30.850Z,19.30
2023-05-13T02:58:57.495Z,19.70
2023-05-13T03:01:26.557Z,19.30
2023-05-13T03:03:53.253Z,19.30
2023-05-13T03:06:23.227Z,19.90
2023-05-13T03:08:49.829Z,19.40
2023-05-13T03:11:16.480Z,19.00
2023-05-13T03:13:43.252Z,19.40
2023-05-13T03:16:09.918Z,19.40
2023-05-13T03:18:36.681Z,19.20
2023-05-13T03:21:03.435Z,19.60
2023-05-13T03:23:30.358Z,19.40
2023-05-13T03:25:57.014Z,19.90
2023-05-13T03:28:23.585Z,19.40
2023-05-13T03:30:51.003Z,19.30
2023-05-13T03:33:17.708Z,19.50
2023-05-13T03:35:44.411Z,19.60
2023-05-13T03:38:11.104Z,19.30
2023-05-13T03:40:37.865Z,19.60
2023-05-13T03:43:04.464Z,19.30
2023-05-13T03:45:31.328Z,19.80
2023-05-13T03:47:57.987Z,20.00
2023-05-13T03:50:24.893Z,19.70
2023-05-13T03:52:51.692Z,19.40
2023-05-13T03:55:18.312Z,19.30
2023-05-13T03:57:47.545Z,19.90
2023-05-13T04:00:14.520Z,19.40
2023-05-13T04:02:41.759Z,19.20
2023-05-13T04:05:09.421Z,19.20
2023-05-13T04:07:36.113Z,19.20
2023-05-13T04:10:02.908Z,19.20
2023-05-13T04:12:30.940Z,19.20
2023-05-13T04:14:57.589Z,19.20
2023-05-13T04:17:24.380Z,19.30
2023-05-13T04:19:54.709Z,19.30
2023-05-13T04:22:22.240Z,19.30
2023-05-13T04:24:51.868Z,19.30
2023-05-13T04:27:18.683Z,19.30
2023-05-13T04:29:45.291Z,19.30
2023-05-13T04:32:15.973Z,19.30
2023-05-13T04:34:42.719Z,19.30
2023-05-13T04:37:09.296Z,19.30
2023-05-13T04:39:35.827Z,19.30
2023-05-13T04:42:02.430Z,19.30
2023-05-13T04:44:28.979Z,19.30
2023-05-13T04:46:55.592Z,19.30
2023-05-13T04:49:22.236Z,19.30
2023-05-13T04:51:49.231Z,19.30
2023-05-13T04:54:16.084Z,19.30
2023-05-13T04:56:42.653Z,19.30
2023-05-13T04:59:09.621Z,19.20
2023-05-13T05:01:36.313Z,19.20
2023-05-13T05:04:02.919Z,19.20
2023-05-13T05:06:29.607Z,19.20
2023-05-13T05:08:56.202Z,19.20
2023-05-13T05:11:22.738Z,19.20
2023-05-13T05:13:49.391Z,19.20
2023-05-13T05:16:15.975Z,19.20
2023-05-13T05:18:43.461Z,19.20
2023-05-13T05:21:10.286Z,19.20
2023-05-13T05:23:36.897Z,19.20
2023-05-13T05:26:11.127Z,19.50
2023-05-13T05:28:40.148Z,19.30
2023-05-13T05:31:07.096Z,19.30
2023-05-13T05:33:33.726Z,19.30
2023-05-13T05:36:00.310Z,19.40
2023-05-13T05:38:26.918Z,19.50
2023-05-13T05:40:53.718Z,19.30
2023-05-13T05:43:20.388Z,19.30
2023-05-13T05:45:47.024Z,19.30
2023-05-13T05:48:13.666Z,19.30
2023-05-13T05:50:40.703Z,19.30
2023-05-13T05:53:07.294Z,19.10
2023-05-13T05:55:33.983Z,19.30
2023-05-13T05:58:05.358Z,19.30
2023-05-13T06:00:33.073Z,19.40
2023-05-13T06:02:59.830Z,19.50
2023-05-13T06:05:26.489Z,19.60
2023-05-13T06:07:53.057Z,19.60
2023-05-13T06:10:19.835Z,19.60
2023-05-13T06:12:46.555Z,19.70
2023-05-13T06:15:13.125Z,19.70
2023-05-13T06:17:39.855Z,19.70
2023-05-13T06:20:06.932Z,19.90
2023-05-13T06:22:36.354Z,19.70
2023-05-13T06:25:02.967Z,19.70
2023-05-13T06:27:29.618Z,19.60
2023-05-13T06:29:56.181Z,19.60
2023-05-13T06:32:22.780Z,19.60
2023-05-13T06:34:52.962Z,19.60
2023-05-13T06:37:20.890Z,19.60
2023-05-13T06:39:47.470Z,19.60
2023-05-13T06:42:14.396Z,19.60
2023-05-13T06:44:41.089Z,19.60
2023-05-13T06:47:08.616Z,19.50
2023-05-13T06:49:35.397Z,19.50
2023-05-13T06:52:02.022Z,19.50
2023-05-13T06:54:28.618Z,19.50
2023-05-13T06:56:55.592Z,19.50
2023-05-13T06:59:22.866Z,19.50
2023-05-13T07:01:49.558Z,19.50
2023-05-13T07:04:16.377Z,19.50
2023-05-13T07:06:43.118Z,19.50
2023-05-13T07:09:09.799Z,19.50
2023-05-13T07:11:36.762Z,19.50
2023-05-13T07:14:03.340Z,19.50
2023-05-13T07:16:29.922Z,19.80
2023-05-13T07:18:56.509Z,19.60
2023-05-13T07:21:23.146Z,19.70
2023-05-13T07:23:49.869Z,19.60
2023-05-13T07:26:16.911Z,19.60
2023-05-13T07:28:43.649Z,19.60
2023-05-13T07:31:10.330Z,19.70
2023-05-13T07:33:37.096Z,19.60
2023-05-13T07:36:03.900Z,19.60
2023-05-13T07:38:30.446Z,19.70
2023-05-13T07:40:57.041Z,19.60
2023-05-13T07:43:23.982Z,19.80
2023-05-13T07:45:51.290Z,19.70
2023-05-13T07:48:18.144Z,19.70
2023-05-13T07:50:47.610Z,19.70
2023-05-13T07:53:14.301Z,19.70
2023-05-13T07:55:41.448Z,19.70
2023-05-13T07:58:08.045Z,19.80
2023-05-13T08:00:34.630Z,19.90
2023-05-13T08:03:01.295Z,19.70
2023-05-13T08:05:27.963Z,19.70
2023-05-13T08:07:54.552Z,19.70
2023-05-13T08:10:21.171Z,19.70
2023-05-13T08:12:52.185Z,19.80
2023-05-13T08:15:18.973Z,19.80
2023-05-13T08:17:45.627Z,19.80
2023-05-13T08:20:12.253Z,19.80
2023-05-13T08:22:38.869Z,19.80
2023-05-13T08:25:05.610Z,19.90
2023-05-13T08:27:32.258Z,19.90
2023-05-13T08:29:58.842Z,20.10
2023-05-13T08:32:25.606Z,19.90
2023-05-13T08:34:52.180Z,19.90
2023-05-13T08:37:18.832Z,19.90
2023-05-13T08:39:45.768Z,19.90
2023-05-13T08:42:15.123Z,19.90
2023-05-13T08:44:42.997Z,19.90
2023-05-13T08:47:18.800Z,19.90
2023-05-13T08:49:46.429Z,19.90
2023-05-13T08:52:13.068Z,19.90
2023-05-13T08:54:39.765Z,19.90
2023-05-13T08:57:06.748Z,20.00
2023-05-13T08:59:33.544Z,19.90
2023-05-13T09:02:03.235Z,19.90
2023-05-13T09:04:29.810Z,19.90
2023-05-13T09:06:56.494Z,20.00
2023-05-13T09:09:23.110Z,19.90
2023-05-13T09:11:49.846Z,19.80
2023-05-13T09:14:18.754Z,19.90
2023-05-13T09:16:45.330Z,19.90
2023-05-13T09:19:12.109Z,19.90
2023-05-13T09:21:39.049Z,19.90
2023-05-13T09:24:11.192Z,19.80
2023-05-13T09:26:38.534Z,19.80
2023-05-13T09:29:15.839Z,19.90
2023-05-13T09:31:43.049Z,19.90
2023-05-13T09:34:09.649Z,19.90
2023-05-13T09:36:36.405Z,19.90
2023-05-13T09:39:03.322Z,19.90
2023-05-13T09:41:33.819Z,19.80
2023-05-13T09:44:04.492Z,19.90
2023-05-13T09:46:32.239Z,19.80
2023-05-13T09:48:58.968Z,19.80
2023-05-13T09:51:28.103Z,20.00
2023-05-13T09:53:55.080Z,19.70
2023-05-13T09:56:23.891Z,19.80
2023-05-13T09:58:53.404Z,19.90
2023-05-13T10:01:20.536Z,19.80
2023-05-13T10:03:47.532Z,19.80
2023-05-13T10:06:17.630Z,19.80
2023-05-13T10:08:46.908Z,19.70
2023-05-13T10:11:15.651Z,19.70
2023-05-13T10:13:43.526Z,19.70
2023-05-13T10:16:10.277Z,20.30
2023-05-13T10:18:36.954Z,19.70
2023-05-13T10:21:04.373Z,19.70
2023-05-13T10:23:32.484Z,19.70
2023-05-13T10:25:59.146Z,19.80
2023-05-13T10:28:26.285Z,19.90
2023-05-13T10:30:52.981Z,19.70
2023-05-13T10:33:20.178Z,19.70
2023-05-13T10:36:02.076Z,19.70
2023-05-13T10:38:28.615Z,19.70
2023-05-13T10:40:58.205Z,19.70
2023-05-13T10:43:32.698Z,19.70
2023-05-13T10:46:04.300Z,19.70
2023-05-13T10:48:43.743Z,19.70
2023-05-13T10:51:14.139Z,19.70
2023-05-13T10:53:46.426Z,19.80
2023-05-13T10:56:13.635Z,19.70
2023-05-13T10:58:40.232Z,20.30
2023-05-13T11:01:16.129Z,19.90
2023-05-13T11:03:51.184Z,19.70
2023-05-13T11:06:19.615Z,19.80
2023-05-13T11:08:47.292Z,20.10
2023-05-13T11:11:24.097Z,19.80
2023-05-13T11:13:51.359Z,19.80
2023-05-13T11:16:18.210Z,20.10
2023-05-13T11:18:45.018Z,19.90
2023-05-13T11:21:11.591Z,19.80
2023-05-13T11:23:56.931Z,19.80
2023-05-13T11:26:23.556Z,19.80
2023-05-13T11:28:55.951Z,19.80
2023-05-13T11:31:23.321Z,19.80
2023-05-13T11:34:19.547Z,19.80
2023-05-13T11:36:47.564Z,19.90
2023-05-13T11:39:14.162Z,19.90
2023-05-13T11:41:41.950Z,19.90
2023-05-13T11:44:08.763Z,19.90
2023-05-13T11:46:36.170Z,19.90
2023-05-13T11:49:04.215Z,19.90
2023-05-13T11:51:33.729Z,19.80
2023-05-13T11:54:01.159Z,20.00
2023-05-13T11:56:28.564Z,19.90
2023-05-13T11:58:55.751Z,19.90
2023-05-13T12:01:22.399Z,19.90
2023-05-13T12:03:49.008Z,19.90
2023-05-13T12:06:15.842Z,19.90
2023-05-13T12:08:46.177Z,19.80
2023-05-13T12:11:13.359Z,19.90
2023-05-13T12:13:41.510Z,19.90
2023-05-13T12:16:08.607Z,19.90
2023-05-13T12:18:37.214Z,19.90
2023-05-13T12:21:13.587Z,19.90
2023-05-13T12:23:43.162Z,20.20
2023-05-13T12:26:09.810Z,20.10
2023-05-13T12:28:36.369Z,20.20
2023-05-13T12:31:04.254Z,20.10
2023-05-13T12:33:41.116Z,20.60
2023-05-13T12:36:20.107Z,20.20
2023-05-13T12:38:59.597Z,20.20
2023-05-13T12:41:28.962Z,20.20
2023-05-13T12:43:57.561Z,20.30
2023-05-13T12:46:24.668Z,20.20
2023-05-13T12:48:58.266Z,20.30
2023-05-13T12:51:25.080Z,20.30
2023-05-13T12:53:54.138Z,20.30
2023-05-13T12:56:22.393Z,20.30
2023-05-13T12:58:55.295Z,20.30
2023-05-13T13:01:22.054Z,20.40
2023-05-13T13:03:48.789Z,20.40
2023-05-13T13:06:15.737Z,20.30
2023-05-13T13:08:42.338Z,20.40
2023-05-13T13:11:09.288Z,20.30
2023-05-13T13:13:38.283Z,20.30
2023-05-13T13:16:06.226Z,20.30
2023-05-13T13:18:33.091Z,20.30
2023-05-13T13:20:59.754Z,20.30
2023-05-13T13:23:26.360Z,20.40
2023-05-13T13:25:53.007Z,20.20
2023-05-13T13:28:19.656Z,20.20
2023-05-13T13:30:47.238Z,20.20
2023-05-13T13:33:15.059Z,20.20
2023-05-13T13:35:43.673Z,20.20
2023-05-13T13:38:10.692Z,20.20
2023-05-13T13:40:37.314Z,20.20
2023-05-13T13:43:04.404Z,20.20
2023-05-13T13:45:31.265Z,20.10
2023-05-13T13:47:58.335Z,20.10
2023-05-13T13:50:25.228Z,20.20
2023-05-13T13:52:54.907Z,20.10
2023-05-13T13:55:21.886Z,20.20
2023-05-13T13:57:48.580Z,20.10
2023-05-13T14:00:15.950Z,20.10
2023-05-13T14:02:43.482Z,20.10
2023-05-13T14:05:11.297Z,20.10
2023-05-13T14:07:38.174Z,20.10
2023-05-13T14:10:05.605Z,20.10
2023-05-13T14:12:32.534Z,20.00
2023-05-13T14:14:59.903Z,20.00
2023-05-13T14:17:26.722Z,20.20
2023-05-13T14:19:55.156Z,20.00
2023-05-13T14:22:22.393Z,20.20
2023-05-13T14:24:49.049Z,20.00
2023-05-13T14:27:15.755Z,20.00
2023-05-13T14:29:42.331Z,20.00
2023-05-13T14:32:09.056Z,20.20
2023-05-13T14:34:35.784Z,20.20
2023-05-13T14:37:02.422Z,20.40
2023-05-13T14:39:30.160Z,20.00
2023-05-13T14:41:56.772Z,20.00
2023-05-13T14:44:23.424Z,20.20
2023-05-13T14:46:50.365Z,20.30
2023-05-13T14:49:16.980Z,20.00
2023-05-13T14:51:43.816Z,20.00
2023-05-13T14:54:10.434Z,20.50
2023-05-13T14:56:37.829Z,20.00
2023-05-13T14:59:04.659Z,20.00
2023-05-13T15:01:31.304Z,20.00
2023-05-13T15:03:59.613Z,20.00
2023-05-13T15:06:26.772Z,19.90
2023-05-13T15:08:53.667Z,19.90
2023-05-13T15:11:20.898Z,19.90
2023-05-13T15:13:47.500Z,20.20
2023-05-13T15:16:14.128Z,19.90
2023-05-13T15:18:40.920Z,20.10
2023-05-13T15:21:07.556Z,20.10
2023-05-13T15:23:34.257Z,19.90
2023-05-13T15:26:00.826Z,19.90
2023-05-13T15:28:29.070Z,19.90
2023-05-13T15:30:56.222Z,19.90
2023-05-13T15:33:22.875Z,19.90
2023-05-13T15:35:49.569Z,19.90
2023-05-13T15:38:16.895Z,19.90
2023-05-13T15:40:43.512Z,19.80
2023-05-13T15:43:10.114Z,20.00
2023-05-13T15:45:36.731Z,19.80
2023-05-13T15:48:03.482Z,19.80
2023-05-13T15:50:30.245Z,19.80
2023-05-13T15:52:56.863Z,19.80
2023-05-13T15:55:23.463Z,19.80
2023-05-13T15:57:50.629Z,19.70
2023-05-13T16:00:17.698Z,19.70
2023-05-13T16:02:44.454Z,19.70
2023-05-13T16:05:15.750Z,19.80
2023-05-13T16:07:42.690Z,19.80
2023-05-13T16:10:09.536Z,19.70
2023-05-13T16:12:36.799Z,19.70
2023-05-13T16:15:03.830Z,20.20
2023-05-13T16:17:31.486Z,19.70
2023-05-13T16:19:58.147Z,19.90
2023-05-13T16:22:28.965Z,19.70
2023-05-13T16:25:13.695Z,19.70
2023-05-13T16:27:42.858Z,19.70
2023-05-13T16:30:10.451Z,19.60
2023-05-13T16:32:37.189Z,19.60
2023-05-13T16:35:03.998Z,19.50
2023-05-13T16:37:31.235Z,19.60
2023-05-13T16:39:58.021Z,19.60
2023-05-13T16:42:25.532Z,19.60
2023-05-13T16:44:52.111Z,19.70
2023-05-13T16:47:18.672Z,19.50
2023-05-13T16:49:45.578Z,19.60
2023-05-13T16:52:12.214Z,19.50
2023-05-13T16:54:38.884Z,19.50
2023-05-13T16:57:05.978Z,19.50
2023-05-13T16:59:32.694Z,19.50
2023-05-13T17:01:59.686Z,19.50
2023-05-13T17:04:28.313Z,19.50
2023-05-13T17:06:56.780Z,19.50
2023-05-13T17:09:24.867Z,19.50
2023-05-13T17:11:51.432Z,19.70
2023-05-13T17:14:18.012Z,19.50
2023-05-13T17:16:44.666Z,19.60
2023-05-13T17:19:11.568Z,19.50
2023-05-13T17:21:38.338Z,19.60
2023-05-13T17:24:05.917Z,19.60
2023-05-13T17:26:33.124Z,19.60
2023-05-13T17:28:59.855Z,19.60
2023-05-13T17:31:27.030Z,19.60
2023-05-13T17:33:53.780Z,19.60
2023-05-13T17:36:20.418Z,19.70
2023-05-13T17:38:47.642Z,19.80
2023-05-13T17:41:14.232Z,19.50
2023-05-13T17:43:40.818Z,19.90
2023-05-13T17:46:07.437Z,19.70
2023-05-13T17:48:34.160Z,19.70
2023-05-13T17:51:00.847Z,19.70
2023-05-13T17:53:27.437Z,19.70
2023-05-13T17:55:54.024Z,19.80
2023-05-13T17:58:20.833Z,19.70
2023-05-13T18:00:48.235Z,19.60
2023-05-13T18:03:15.106Z,19.70
2023-05-13T18:05:41.746Z,19.70
2023-05-13T18:08:08.366Z,19.80
2023-05-13T18:10:34.926Z,19.80
2023-05-13T18:13:02.898Z,19.80
2023-05-13T18:15:29.697Z,19.80
2023-05-13T18:17:56.343Z,20.00
2023-05-13T18:20:23.177Z,19.90
2023-05-13T18:22:50.090Z,19.90
2023-05-13T18:25:16.742Z,19.80
2023-05-13T18:27:43.338Z,19.80
2023-05-13T18:30:10.322Z,19.80
2023-05-13T18:32:36.983Z,19.80
2023-05-13T18:35:03.815Z,20.30
2023-05-13T18:37:30.532Z,19.70
2023-05-13T18:39:58.630Z,19.70
2023-05-13T18:42:26.162Z,19.70
2023-05-13T18:44:52.788Z,19.70
2023-05-13T18:47:19.434Z,19.70
2023-05-13T18:49:46.156Z,19.60
2023-05-13T18:52:12.799Z,19.60
2023-05-13T18:54:39.674Z,19.60
2023-05-13T18:57:06.407Z,19.80
2023-05-13T18:59:32.980Z,19.70
2023-05-13T19:01:59.610Z,19.80
2023-05-13T19:04:26.718Z,20.40
2023-05-13T19:06:53.481Z,19.70
2023-05-13T19:09:21.627Z,19.70
2023-05-13T19:11:48.307Z,19.70
2023-05-13T19:14:14.932Z,19.80
2023-05-13T19:16:41.574Z,19.70
2023-05-13T19:19:08.289Z,19.70
2023-05-13T19:21:34.886Z,19.70
2023-05-13T19:24:03.301Z,19.70
2023-05-13T19:26:30.187Z,19.60
2023-05-13T19:28:56.783Z,19.60
2023-05-13T19:31:24.716Z,19.60
2023-05-13T19:33:51.367Z,19.60
2023-05-13T19:36:17.950Z,19.60
2023-05-13T19:38:44.704Z,19.60
2023-05-13T19:41:11.523Z,19.60
2023-05-13T19:43:38.147Z,19.70
2023-05-13T19:46:04.790Z,19.80
2023-05-13T19:48:31.410Z,19.90
2023-05-13T19:50:58.382Z,19.90
2023-05-13T19:53:25.090Z,20.00
2023-05-13T19:55:51.671Z,20.00
2023-05-13T19:58:18.350Z,20.10
2023-05-13T20:00:45.189Z,20.10
2023-05-13T20:03:11.958Z,20.10
2023-05-13T20:05:39.946Z,20.20
2023-05-13T20:08:06.707Z,20.20
2023-05-13T20:10:35.245Z,20.20
2023-05-13T20:13:03.499Z,20.20
2023-05-13T20:15:30.730Z,20.20
2023-05-13T20:17:57.564Z,20.10
2023-05-13T20:20:24.470Z,20.10
2023-05-13T20:22:51.256Z,20.10
2023-05-13T20:25:17.933Z,20.00
2023-05-13T20:27:44.559Z,20.00
2023-05-13T20:30:11.580Z,19.90
2023-05-13T20:32:38.250Z,19.90
2023-05-13T20:35:05.183Z,19.90
2023-05-13T20:37:32.165Z,19.90
2023-05-13T20:39:58.745Z,19.80
2023-05-13T20:42:25.826Z,19.70
2023-05-13T20:44:52.458Z,19.80
2023-05-13T20:47:19.927Z,19.70
2023-05-13T20:49:46.581Z,19.60
2023-05-13T20:52:13.364Z,20.10
2023-05-13T20:54:40.141Z,19.80
2023-05-13T20:57:06.866Z,20.00
2023-05-13T20:59:33.555Z,19.60
2023-05-13T21:02:00.217Z,19.50
2023-05-13T21:04:27.100Z,19.50
2023-05-13T21:06:53.787Z,19.50
2023-05-13T21:09:20.478Z,19.70
2023-05-13T21:11:47.133Z,19.60
2023-05-13T21:14:13.829Z,19.70
2023-05-13T21:16:40.508Z,20.00
2023-05-13T21:19:07.540Z,19.60
2023-05-13T21:21:34.707Z,19.50
2023-05-13T21:24:01.305Z,19.50
2023-05-13T21:26:27.905Z,19.50
2023-05-13T21:28:54.510Z,19.70
2023-05-13T21:31:21.157Z,19.50
2023-05-13T21:33:48.893Z,19.60
2023-05-13T21:36:15.698Z,19.60
2023-05-13T21:38:42.312Z,19.60
2023-05-13T21:41:08.860Z,19.50
2023-05-13T21:43:35.465Z,19.50
2023-05-13T21:46:03.179Z,19.50
2023-05-13T21:48:29.850Z,19.50
2023-05-13T21:50:56.532Z,19.40
2023-05-13T21:53:23.439Z,19.40
2023-05-13T21:55:50.415Z,19.40
2023-05-13T21:58:17.078Z,19.40
2023-05-13T22:00:43.774Z,19.40
2023-05-13T22:03:10.726Z,19.50
2023-05-13T22:05:43.598Z,19.40
2023-05-13T22:08:10.794Z,19.40
2023-05-13T22:10:37.564Z,19.40
2023-05-13T22:13:04.364Z,19.50
2023-05-13T22:15:31.422Z,19.50
2023-05-13T22:17:58.072Z,19.50
2023-05-13T22:20:24.888Z,19.60
2023-05-13T22:22:51.894Z,19.50
2023-05-13T22:25:18.497Z,19.60
2023-05-13T22:27:46.955Z,19.40
2023-05-13T22:30:13.612Z,19.40
2023-05-13T22:32:40.380Z,19.40
2023-05-13T22:35:07.320Z,19.40
2023-05-13T22:37:33.895Z,19.40
2023-05-13T22:40:00.599Z,19.40
2023-05-13T22:42:27.327Z,19.40
2023-05-13T22:44:53.886Z,19.40
2023-05-13T22:47:20.447Z,19.40
2023-05-13T22:49:47.003Z,19.50
2023-05-13T22:52:13.557Z,19.40
2023-05-13T22:54:40.152Z,19.40
2023-05-13T22:57:06.741Z,19.40
2023-05-13T22:59:33.301Z,19.40
2023-05-13T23:01:59.989Z,19.40
2023-05-13T23:04:26.702Z,19.30
2023-05-13T23:06:53.313Z,19.40
2023-05-13T23:09:20.110Z,19.40
2023-05-13T23:11:46.707Z,19.40
2023-05-13T23:14:13.377Z,19.40
2023-05-13T23:16:40.072Z,19.40
2023-05-13T23:19:06.722Z,19.40
2023-05-13T23:21:33.368Z,19.40
2023-05-13T23:23:59.968Z,19.40
2023-05-13T23:26:26.552Z,19.40
2023-05-13T23:28:53.177Z,19.40
2023-05-13T23:31:19.810Z,19.30
2023-05-13T23:33:46.464Z,19.40
2023-05-13T23:36:13.059Z,19.40
2023-05-13T23:38:39.637Z,19.40
2023-05-13T23:41:06.200Z,19.40
2023-05-13T23:43:32.784Z,19.40
2023-05-13T23:45:59.485Z,19.30
2023-05-13T23:48:26.681Z,19.30
2023-05-13T23:50:53.243Z,19.30
2023-05-13T23:53:19.923Z,19.30
2023-05-13T23:55:46.466Z,19.30
2023-05-13T23:58:13.036Z,19.30
